createdAt,value
2023-05-11T00:01:28.893Z,12.59
2023-05-11T00:03:55.656Z,12.58
2023-05-11T00:06:22.325Z,12.53
2023-05-11T00:08:48.904Z,12.61
2023-05-11T00:11:15.643Z,12.52
2023-05-11T00:13:42.376Z,12.29
2023-05-11T00:16:09.047Z,12.45
2023-05-11T00:18:35.796Z,12.34
2023-05-11T00:21:02.403Z,12.20
2023-05-11T00:23:29.014Z,12.25
2023-05-11T00:25:56.411Z,12.32
2023-05-11T00:28:23.065Z,12.36
2023-05-11T00:30:49.703Z,12.19
2023-05-11T00:33:16.290Z,12.00
2023-05-11T00:35:42.879Z,12.18
2023-05-11T00:38:09.477Z,12.22
2023-05-11T00:40:36.161Z,12.34
2023-05-11T00:43:02.738Z,12.29
2023-05-11T00:45:30.330Z,12.57
2023-05-11T00:47:57.101Z,12.45
2023-05-11T00:50:25.056Z,12.24
2023-05-11T00:52:51.843Z,12.30
2023-05-11T00:55:21.749Z,12.33
2023-05-11T00:57:48.704Z,12.24
2023-05-11T01:00:15.764Z,12.22
2023-05-11T01:02:42.672Z,12.44
2023-05-11T01:05:09.667Z,12.36
2023-05-11T01:07:46.347Z,12.44
2023-05-11T01:10:50.437Z,12.11
2023-05-11T01:13:43.798Z,11.96
2023-05-11T01:16:21.661Z,12.27
2023-05-11T01:19:00.972Z,12.26
2023-05-11T01:21:31.057Z,12.43
2023-05-11T01:24:19.834Z,12.18
2023-05-11T01:27:07.624Z,12.26
2023-05-11T01:29:59.219Z,12.36
2023-05-11T01:32:33.813Z,12.24
2023-05-11T01:35:06.852Z,12.09
2023-05-11T01:37:35.326Z,12.36
2023-05-11T01:40:07.689Z,12.08
2023-05-11T01:42:44.491Z,11.93
2023-05-11T01:45:14.047Z,11.93
2023-05-11T01:47:43.883Z,12.04
2023-05-11T01:50:11.529Z,11.82
2023-05-11T01:52:39.869Z,11.95
2023-05-11T01:55:08.076Z,12.03
2023-05-11T01:57:37.400Z,11.81
2023-05-11T02:00:04.493Z,11.92
2023-05-11T02:02:32.476Z,11.92
2023-05-11T02:05:01.193Z,11.97
2023-05-11T02:07:28.526Z,11.34
2023-05-11T02:09:56.908Z,11.59
2023-05-11T02:12:25.980Z,11.59
2023-05-11T02:14:54.306Z,11.72
2023-05-11T02:17:22.769Z,11.83
2023-05-11T02:19:50.852Z,11.95
2023-05-11T02:22:19.124Z,12.06
2023-05-11T02:24:47.741Z,11.96
2023-05-11T02:27:14.454Z,11.82
2023-05-11T02:29:43.512Z,11.87
2023-05-11T02:32:19.224Z,11.83
2023-05-11T02:34:54.406Z,11.71
2023-05-11T02:37:24.593Z,11.87
2023-05-11T02:39:58.833Z,11.87
2023-05-11T02:42:28.060Z,11.79
2023-05-11T02:45:04.182Z,11.89
2023-05-11T02:47:36.141Z,11.86
2023-05-11T02:50:08.200Z,11.87
2023-05-11T02:52:36.389Z,11.94
2023-05-11T02:55:07.031Z,12.01
2023-05-11T02:57:33.889Z,11.55
2023-05-11T03:00:01.346Z,11.21
2023-05-11T03:02:28.069Z,11.40
2023-05-11T03:04:54.833Z,11.57
2023-05-11T03:07:21.883Z,11.39
2023-05-11T03:09:48.951Z,11.42
2023-05-11T03:12:15.767Z,11.49
2023-05-11T03:14:43.354Z,11.37
2023-05-11T03:17:12.460Z,11.35
2023-05-11T03:19:40.504Z,11.01
2023-05-11T03:22:08.092Z,11.35
2023-05-11T03:24:35.587Z,11.40
2023-05-11T03:27:04.450Z,11.22
2023-05-11T03:29:33.124Z,11.01
2023-05-11T03:31:59.918Z,11.27
2023-05-11T03:34:26.651Z,11.24
2023-05-11T03:36:54.512Z,11.16
2023-05-11T03:39:22.240Z,11.16
2023-05-11T03:41:50.758Z,11.19
2023-05-11T03:44:19.025Z,11.52
2023-05-11T03:46:46.089Z,11.35
2023-05-11T03:49:13.792Z,11.56
2023-05-11T03:51:41.408Z,11.70
2023-05-11T03:54:08.415Z,11.45
2023-05-11T03:56:39.339Z,10.96
2023-05-11T03:59:06.400Z,10.47
2023-05-11T04:01:33.332Z,10.64
2023-05-11T04:04:00.045Z,10.72
2023-05-11T04:06:26.751Z,10.83
2023-05-11T04:08:53.448Z,10.90
2023-05-11T04:11:20.051Z,11.14
2023-05-11T04:13:46.623Z,11.21
2023-05-11T04:16:13.323Z,11.47
2023-05-11T04:18:40.077Z,11.15
2023-05-11T04:21:06.710Z,11.09
2023-05-11T04:23:33.429Z,11.20
2023-05-11T04:26:00.060Z,11.17
2023-05-11T04:28:26.796Z,11.09
2023-05-11T04:30:54.901Z,11.39
2023-05-11T04:33:21.618Z,11.41
2023-05-11T04:35:52.353Z,11.17
2023-05-11T04:38:23.144Z,11.30
2023-05-11T04:40:50.177Z,11.05
2023-05-11T04:43:17.549Z,11.45
2023-05-11T04:45:50.927Z,11.64
2023-05-11T04:48:20.506Z,11.34
2023-05-11T04:50:47.560Z,11.53
2023-05-11T04:53:14.499Z,11.51
2023-05-11T04:55:41.199Z,11.77
2023-05-11T04:58:10.581Z,11.70
2023-05-11T05:00:37.225Z,11.47
2023-05-11T05:03:04.208Z,11.62
2023-05-11T05:05:30.918Z,11.53
2023-05-11T05:07:57.563Z,11.80
2023-05-11T05:10:24.302Z,11.86
2023-05-11T05:12:50.900Z,11.67
2023-05-11T05:15:17.731Z,11.73
2023-05-11T05:17:44.393Z,11.87
2023-05-11T05:20:11.270Z,11.78
2023-05-11T05:22:37.876Z,11.46
2023-05-11T05:25:04.820Z,11.58
2023-05-11T05:27:34.084Z,11.38
2023-05-11T05:30:01.471Z,11.52
2023-05-11T05:32:28.163Z,11.57
2023-05-11T05:34:54.762Z,11.71
2023-05-11T05:37:21.388Z,11.95
2023-05-11T05:39:48.576Z,11.74
2023-05-11T05:42:15.214Z,11.85
2023-05-11T05:44:41.877Z,11.84
2023-05-11T05:47:08.484Z,12.01
2023-05-11T05:49:35.145Z,12.29
2023-05-11T05:52:01.798Z,12.18
2023-05-11T05:54:28.455Z,12.37
2023-05-11T05:56:55.045Z,12.33
2023-05-11T05:59:21.719Z,12.43
2023-05-11T06:01:48.547Z,12.29
2023-05-11T06:04:15.445Z,12.58
2023-05-11T06:06:42.158Z,12.63
2023-05-11T06:09:08.900Z,12.74
2023-05-11T06:11:35.598Z,12.93
2023-05-11T06:14:02.302Z,12.97
2023-05-11T06:16:28.944Z,12.84
2023-05-11T06:18:55.907Z,13.00
2023-05-11T06:21:22.707Z,13.02
2023-05-11T06:23:49.285Z,13.26
2023-05-11T06:26:15.998Z,12.95
2023-05-11T06:28:42.741Z,13.11
2023-05-11T06:31:09.470Z,13.20
2023-05-11T06:33:36.092Z,13.33
2023-05-11T06:36:06.726Z,13.27
2023-05-11T06:38:33.603Z,13.48
2023-05-11T06:41:00.277Z,13.83
2023-05-11T06:43:26.913Z,13.76
2023-05-11T06:45:53.703Z,13.61
2023-05-11T06:48:20.416Z,13.92
2023-05-11T06:50:47.011Z,14.01
2023-05-11T06:53:13.899Z,13.97
2023-05-11T06:55:40.670Z,13.90
2023-05-11T06:58:07.285Z,14.18
2023-05-11T07:00:34.141Z,14.17
2023-05-11T07:03:00.843Z,14.43
2023-05-11T07:05:27.537Z,14.43
2023-05-11T07:07:54.217Z,14.41
2023-05-11T07:10:21.057Z,14.26
2023-05-11T07:12:47.902Z,14.63
2023-05-11T07:15:14.609Z,14.61
2023-05-11T07:17:41.427Z,14.75
2023-05-11T07:20:08.608Z,14.65
2023-05-11T07:22:35.254Z,14.90
2023-05-11T07:25:01.909Z,14.69
2023-05-11T07:27:28.552Z,14.89
2023-05-11T07:29:55.121Z,15.03
2023-05-11T07:32:21.751Z,15.16
2023-05-11T07:34:48.541Z,15.23
2023-05-11T07:37:15.160Z,15.13
2023-05-11T07:39:41.907Z,15.16
2023-05-11T07:42:08.537Z,15.35
2023-05-11T07:44:35.868Z,15.37
2023-05-11T07:47:02.502Z,15.46
2023-05-11T07:49:39.976Z,15.52
2023-05-11T07:52:09.836Z,15.73
2023-05-11T07:54:36.779Z,15.62
2023-05-11T07:57:03.545Z,15.71
2023-05-11T07:59:30.149Z,15.91
2023-05-11T08:01:56.807Z,16.14
2023-05-11T08:04:23.795Z,16.11
2023-05-11T08:06:50.540Z,16.30
2023-05-11T08:09:17.264Z,16.53
2023-05-11T08:11:43.890Z,16.53
2023-05-11T08:14:10.480Z,16.43
2023-05-11T08:16:37.711Z,16.62
2023-05-11T08:19:04.571Z,16.59
2023-05-11T08:21:31.303Z,16.77
2023-05-11T08:23:57.926Z,16.95
2023-05-11T08:26:24.723Z,16.92
2023-05-11T08:28:51.591Z,16.84
2023-05-11T08:31:18.732Z,16.88
2023-05-11T08:33:45.644Z,17.03
2023-05-11T08:36:12.646Z,16.92
2023-05-11T08:38:39.331Z,17.17
2023-05-11T08:41:06.232Z,17.34
2023-05-11T08:43:35.391Z,17.30
2023-05-11T08:46:04.765Z,17.58
2023-05-11T08:48:32.251Z,17.62
2023-05-11T08:50:59.219Z,17.72
2023-05-11T08:53:25.857Z,17.76
2023-05-11T08:55:55.588Z,17.75
2023-05-11T08:58:22.917Z,17.67
2023-05-11T09:00:51.055Z,17.80
2023-05-11T09:03:19.179Z,18.04
2023-05-11T09:05:47.131Z,18.04
2023-05-11T09:08:15.532Z,18.08
2023-05-11T09:10:42.598Z,17.97
2023-05-11T09:13:09.428Z,18.00
2023-05-11T09:15:38.078Z,17.92
2023-05-11T09:18:05.699Z,18.02
2023-05-11T09:20:33.963Z,18.01
2023-05-11T09:23:01.506Z,18.00
2023-05-11T09:25:30.328Z,18.09
2023-05-11T09:27:59.800Z,18.24
2023-05-11T09:30:26.690Z,18.53
2023-05-11T09:32:57.603Z,18.73
2023-05-11T09:35:25.429Z,18.61
2023-05-11T09:38:10.365Z,18.76
2023-05-11T09:40:39.166Z,18.78
2023-05-11T09:43:29.870Z,18.76
2023-05-11T09:45:58.500Z,18.96
2023-05-11T09:48:30.101Z,18.86
2023-05-11T09:51:05.251Z,18.76
2023-05-11T09:53:44.039Z,18.32
2023-05-11T09:56:12.018Z,18.49
2023-05-11T09:58:46.567Z,18.77
2023-05-11T10:01:13.748Z,18.71
2023-05-11T10:03:50.707Z,18.78
2023-05-11T10:06:20.058Z,18.60
2023-05-11T10:08:48.165Z,18.84
2023-05-11T10:11:15.188Z,18.75
2023-05-11T10:13:44.009Z,19.08
2023-05-11T10:16:16.127Z,19.16
2023-05-11T10:18:43.071Z,19.00
2023-05-11T10:21:15.848Z,19.06
2023-05-11T10:23:43.216Z,18.99
2023-05-11T10:26:10.573Z,19.13
2023-05-11T10:28:37.186Z,18.94
2023-05-11T10:31:04.130Z,18.96
2023-05-11T10:33:31.000Z,19.13
2023-05-11T10:35:57.759Z,19.06
2023-05-11T10:38:25.496Z,19.29
2023-05-11T10:40:55.002Z,19.22
2023-05-11T10:43:27.460Z,19.15
2023-05-11T10:46:26.973Z,19.45
2023-05-11T10:49:11.846Z,19.47
2023-05-11T10:52:06.319Z,19.79
2023-05-11T10:54:51.264Z,20.22
2023-05-11T10:57:17.846Z,20.36
2023-05-11T11:00:24.877Z,20.36
2023-05-11T11:02:51.575Z,20.19
2023-05-11T11:05:33.493Z,19.92
2023-05-11T11:08:02.284Z,19.91
2023-05-11T11:10:37.801Z,20.06
2023-05-11T11:13:09.834Z,20.34
2023-05-11T11:15:54.759Z,20.39
2023-05-11T11:18:31.079Z,20.44
2023-05-11T11:20:59.022Z,20.54
2023-05-11T11:23:45.260Z,20.61
2023-05-11T11:26:13.643Z,20.89
2023-05-11T11:29:09.585Z,20.80
2023-05-11T11:31:37.731Z,20.96
2023-05-11T11:34:24.698Z,21.32
2023-05-11T11:36:57.390Z,21.13
2023-05-11T11:39:29.045Z,21.06
2023-05-11T11:42:12.781Z,20.92
2023-05-11T11:44:41.249Z,20.71
2023-05-11T11:47:22.029Z,20.20
2023-05-11T11:49:51.835Z,20.46
2023-05-11T11:52:27.472Z,20.43
2023-05-11T11:54:55.841Z,20.74
2023-05-11T11:57:34.616Z,20.66
2023-05-11T12:00:09.241Z,20.46
2023-05-11T12:02:43.577Z,20.49
2023-05-11T12:05:15.375Z,20.54
2023-05-11T12:07:50.490Z,20.41
2023-05-11T12:10:21.959Z,20.41
2023-05-11T12:12:52.212Z,20.33
2023-05-11T12:15:29.686Z,19.90
2023-05-11T12:17:56.859Z,19.87
2023-05-11T12:20:23.902Z,20.08
2023-05-11T12:22:51.069Z,20.33
2023-05-11T12:25:22.266Z,20.54
2023-05-11T12:27:55.769Z,20.73
2023-05-11T12:30:24.541Z,20.87
2023-05-11T12:32:56.469Z,20.75
2023-05-11T12:35:34.219Z,20.90
2023-05-11T12:38:02.143Z,20.58
2023-05-11T12:40:28.896Z,20.62
2023-05-11T12:42:57.650Z,20.90
2023-05-11T12:45:26.277Z,20.90
2023-05-11T12:47:54.636Z,21.07
2023-05-11T12:50:22.076Z,21.14
2023-05-11T12:52:49.591Z,20.98
2023-05-11T12:55:31.513Z,21.14
2023-05-11T12:58:35.253Z,21.32
2023-05-11T13:01:02.212Z,21.33
2023-05-11T13:03:31.337Z,21.29
2023-05-11T13:06:08.153Z,21.43
2023-05-11T13:08:44.900Z,21.48
2023-05-11T13:11:23.115Z,21.84
2023-05-11T13:13:50.391Z,21.82
2023-05-11T13:16:32.592Z,20.98
2023-05-11T13:19:06.317Z,21.15
2023-05-11T13:21:33.739Z,21.34
2023-05-11T13:24:01.163Z,21.44
2023-05-11T13:26:30.682Z,21.49
2023-05-11T13:29:09.528Z,21.58
2023-05-11T13:31:48.945Z,21.66
2023-05-11T13:34:16.119Z,21.65
2023-05-11T13:36:43.283Z,20.92
2023-05-11T13:39:09.918Z,20.73
2023-05-11T13:41:36.564Z,20.99
2023-05-11T13:44:03.653Z,21.02
2023-05-11T13:46:30.343Z,20.88
2023-05-11T13:48:56.939Z,20.83
2023-05-11T13:51:23.661Z,20.62
2023-05-11T13:53:50.252Z,20.82
2023-05-11T13:56:16.993Z,20.74
2023-05-11T13:58:43.618Z,20.77
2023-05-11T14:01:10.328Z,20.52
2023-05-11T14:03:37.079Z,20.47
2023-05-11T14:06:04.000Z,20.20
2023-05-11T14:08:30.628Z,20.08
2023-05-11T14:10:57.246Z,20.42
2023-05-11T14:13:23.835Z,20.44
2023-05-11T14:15:51.709Z,20.22
2023-05-11T14:18:18.865Z,20.21
2023-05-11T14:20:45.561Z,19.88
2023-05-11T14:23:12.147Z,19.80
2023-05-11T14:25:38.768Z,19.99
2023-05-11T14:28:05.412Z,19.92
2023-05-11T14:30:32.059Z,20.02
2023-05-11T14:32:58.710Z,19.85
2023-05-11T14:35:25.377Z,19.98
2023-05-11T14:37:52.030Z,19.85
2023-05-11T14:40:18.698Z,20.08
2023-05-11T14:42:45.296Z,19.92
2023-05-11T14:45:12.004Z,19.76
2023-05-11T14:47:38.908Z,19.93
2023-05-11T14:50:06.241Z,19.76
2023-05-11T14:52:32.857Z,19.78
2023-05-11T14:54:59.453Z,19.66
2023-05-11T14:57:26.297Z,19.51
2023-05-11T14:59:59.654Z,19.45
2023-05-11T15:02:27.506Z,19.64
2023-05-11T15:04:54.405Z,19.54
2023-05-11T15:07:21.061Z,19.42
2023-05-11T15:09:47.658Z,19.33
2023-05-11T15:12:14.326Z,19.08
2023-05-11T15:14:40.972Z,18.94
2023-05-11T15:17:07.816Z,19.11
2023-05-11T15:19:34.563Z,19.20
2023-05-11T15:22:01.309Z,19.14
2023-05-11T15:24:27.909Z,19.10
2023-05-11T15:26:54.607Z,19.19
2023-05-11T15:29:21.247Z,18.96
2023-05-11T15:31:47.874Z,18.94
2023-05-11T15:34:15.273Z,19.01
2023-05-11T15:36:41.994Z,19.05
2023-05-11T15:39:08.648Z,18.94
2023-05-11T15:41:35.316Z,18.80
2023-05-11T15:44:01.932Z,18.91
2023-05-11T15:46:28.696Z,18.72
2023-05-11T15:48:57.550Z,18.45
2023-05-11T15:51:25.741Z,18.50
2023-05-11T15:53:52.324Z,18.64
2023-05-11T15:56:20.290Z,18.67
2023-05-11T15:58:46.963Z,18.89
2023-05-11T16:01:13.584Z,18.71
2023-05-11T16:03:40.235Z,18.78
2023-05-11T16:06:07.189Z,18.67
2023-05-11T16:08:34.814Z,18.42
2023-05-11T16:11:01.403Z,18.52
2023-05-11T16:13:28.002Z,18.55
2023-05-11T16:15:54.655Z,18.59
2023-05-11T16:18:21.529Z,18.79
2023-05-11T16:20:48.589Z,18.59
2023-05-11T16:23:15.287Z,18.31
2023-05-11T16:25:41.990Z,18.51
2023-05-11T16:28:08.934Z,18.44
2023-05-11T16:30:36.355Z,18.16
2023-05-11T16:33:03.110Z,18.06
2023-05-11T16:35:30.036Z,17.92
2023-05-11T16:37:59.559Z,18.24
2023-05-11T16:40:26.184Z,18.10
2023-05-11T16:42:53.577Z,17.64
2023-05-11T16:45:20.563Z,17.58
2023-05-11T16:47:47.635Z,17.63
2023-05-11T16:50:14.805Z,17.89
2023-05-11T16:52:42.630Z,18.30
2023-05-11T16:55:09.844Z,18.10
2023-05-11T16:57:36.635Z,18.03
2023-05-11T17:00:03.764Z,17.87
2023-05-11T17:02:30.418Z,17.51
2023-05-11T17:04:57.040Z,16.92
2023-05-11T17:07:25.540Z,16.27
2023-05-11T17:09:52.208Z,16.58
2023-05-11T17:12:18.936Z,16.51
2023-05-11T17:14:45.564Z,16.18
2023-05-11T17:17:12.213Z,16.33
2023-05-11T17:19:38.787Z,16.43
2023-05-11T17:22:05.781Z,16.07
2023-05-11T17:24:32.592Z,15.95
2023-05-11T17:26:59.230Z,15.89
2023-05-11T17:29:25.867Z,16.13
2023-05-11T17:31:52.872Z,16.21
2023-05-11T17:34:20.991Z,16.29
2023-05-11T17:36:48.834Z,16.46
2023-05-11T17:39:15.475Z,16.33
2023-05-11T17:41:42.133Z,16.46
2023-05-11T17:44:09.199Z,16.48
2023-05-11T17:46:36.059Z,16.21
2023-05-11T17:49:02.732Z,15.72
2023-05-11T17:51:29.305Z,15.05
2023-05-11T17:53:55.912Z,15.47
2023-05-11T17:56:22.604Z,15.51
2023-05-11T17:58:50.399Z,15.46
2023-05-11T18:01:17.365Z,15.52
2023-05-11T18:03:44.118Z,15.73
2023-05-11T18:06:10.879Z,15.75
2023-05-11T18:08:37.677Z,15.86
2023-05-11T18:11:05.430Z,15.44
2023-05-11T18:13:32.026Z,14.81
2023-05-11T18:15:58.712Z,14.82
2023-05-11T18:18:26.076Z,14.55
2023-05-11T18:20:52.946Z,14.16
2023-05-11T18:23:20.331Z,14.18
2023-05-11T18:25:46.965Z,14.11
2023-05-11T18:28:13.636Z,13.67
2023-05-11T18:30:40.460Z,13.89
2023-05-11T18:33:07.167Z,14.00
2023-05-11T18:35:33.815Z,14.10
2023-05-11T18:38:00.430Z,13.93
2023-05-11T18:40:27.006Z,13.85
2023-05-11T18:42:53.671Z,13.26
2023-05-11T18:45:20.241Z,13.42
2023-05-11T18:47:46.856Z,13.62
2023-05-11T18:50:13.809Z,13.45
2023-05-11T18:52:40.502Z,12.89
2023-05-11T18:55:09.130Z,12.94
2023-05-11T18:57:35.875Z,13.20
2023-05-11T19:00:02.513Z,13.47
2023-05-11T19:02:29.239Z,12.97
2023-05-11T19:04:55.902Z,13.08
2023-05-11T19:07:22.648Z,13.07
2023-05-11T19:09:49.496Z,12.84
2023-05-11T19:12:18.792Z,12.33
2023-05-11T19:14:47.411Z,12.61
2023-05-11T19:17:14.335Z,12.65
2023-05-11T19:19:40.986Z,13.00
2023-05-11T19:22:09.208Z,12.79
2023-05-11T19:24:36.164Z,12.73
2023-05-11T19:27:07.234Z,12.83
2023-05-11T19:29:34.881Z,12.75
2023-05-11T19:32:01.916Z,12.61
2023-05-11T19:34:28.670Z,12.76
2023-05-11T19:36:55.321Z,12.06
2023-05-11T19:39:22.126Z,12.15
2023-05-11T19:41:48.799Z,11.93
2023-05-11T19:44:15.507Z,12.32
2023-05-11T19:46:42.392Z,12.06
2023-05-11T19:49:09.085Z,12.22
2023-05-11T19:51:35.663Z,12.03
2023-05-11T19:54:02.319Z,12.67
2023-05-11T19:56:28.968Z,12.69
2023-05-11T19:58:55.586Z,12.58
2023-05-11T20:01:22.307Z,12.84
2023-05-11T20:03:49.090Z,12.59
2023-05-11T20:06:15.855Z,12.33
2023-05-11T20:08:42.622Z,12.49
2023-05-11T20:11:09.253Z,13.15
2023-05-11T20:13:35.958Z,12.76
2023-05-11T20:16:02.619Z,12.94
2023-05-11T20:18:29.324Z,12.60
2023-05-11T20:20:55.996Z,12.27
2023-05-11T20:23:22.646Z,12.61
2023-05-11T20:25:49.285Z,12.52
2023-05-11T20:28:16.135Z,12.52
2023-05-11T20:30:42.801Z,12.80
2023-05-11T20:35:39.167Z,12.37
2023-05-11T20:38:05.783Z,12.36
2023-05-11T20:40:32.412Z,12.20
2023-05-11T20:42:59.082Z,12.61
2023-05-11T20:45:25.740Z,12.68
2023-05-11T20:47:52.567Z,12.24
2023-05-11T20:50:19.531Z,12.40
2023-05-11T20:52:46.355Z,12.27
2023-05-11T20:55:12.996Z,12.60
2023-05-11T20:57:39.581Z,12.36
2023-05-11T21:00:07.042Z,11.89
2023-05-11T21:02:33.835Z,11.77
2023-05-11T21:05:00.556Z,12.16
2023-05-11T21:07:28.495Z,11.83
2023-05-11T21:09:55.244Z,11.98
2023-05-11T21:12:21.978Z,12.31
2023-05-11T21:14:48.602Z,11.95
2023-05-11T21:17:15.307Z,12.32
2023-05-11T21:19:41.996Z,12.22
2023-05-11T21:22:08.627Z,12.35
2023-05-11T21:24:35.695Z,12.67
2023-05-11T21:27:02.400Z,12.73
2023-05-11T21:29:29.264Z,12.45
2023-05-11T21:31:55.867Z,12.32
2023-05-11T21:34:22.533Z,12.53
2023-05-11T21:36:49.246Z,12.70
2023-05-11T21:39:15.971Z,13.11
2023-05-11T21:41:42.564Z,12.86
2023-05-11T21:44:09.324Z,12.91
2023-05-11T21:46:36.050Z,12.93
2023-05-11T21:49:02.686Z,13.00
2023-05-11T21:51:29.299Z,13.08
2023-05-11T21:53:55.926Z,12.93
2023-05-11T21:56:22.606Z,12.85
2023-05-11T21:58:49.242Z,12.98
2023-05-11T22:01:16.706Z,13.10
2023-05-11T22:03:43.534Z,12.82
2023-05-11T22:06:10.440Z,13.14
2023-05-11T22:08:37.249Z,12.99
2023-05-11T22:11:03.897Z,12.86
2023-05-11T22:13:30.528Z,12.89
2023-05-11T22:15:57.181Z,12.94
2023-05-11T22:18:23.976Z,12.99
2023-05-11T22:20:50.694Z,12.96
2023-05-11T22:23:17.411Z,12.79
2023-05-11T22:25:43.998Z,11.87
2023-05-11T22:28:10.684Z,11.83
2023-05-11T22:30:37.839Z,12.27
2023-05-11T22:33:04.493Z,12.63
2023-05-11T22:35:31.220Z,12.12
2023-05-11T22:37:57.865Z,12.47
2023-05-11T22:40:25.044Z,12.80
2023-05-11T22:42:51.732Z,12.78
2023-05-11T22:45:18.435Z,12.23
2023-05-11T22:47:45.228Z,12.49
2023-05-11T22:50:11.872Z,12.62
2023-05-11T22:52:38.797Z,12.63
2023-05-11T22:55:06.223Z,12.66
2023-05-11T22:57:32.812Z,12.64
2023-05-11T22:59:59.426Z,12.57
2023-05-11T23:02:26.172Z,12.37
2023-05-11T23:04:52.925Z,12.47
2023-05-11T23:07:19.845Z,12.42
2023-05-11T23:09:46.836Z,12.42
2023-05-11T23:12:13.490Z,12.39
2023-05-11T23:14:40.129Z,12.38
2023-05-11T23:17:06.813Z,12.56
2023-05-11T23:19:33.504Z,12.61
2023-05-11T23:22:00.225Z,12.58
2023-05-11T23:24:26.846Z,12.69
2023-05-11T23:26:53.534Z,12.64
2023-05-11T23:29:20.624Z,12.59
2023-05-11T23:31:47.317Z,12.63
2023-05-11T23:34:14.084Z,12.01
2023-05-11T23:36:40.717Z,11.98
2023-05-11T23:39:07.511Z,12.06
2023-05-11T23:41:34.195Z,12.32
2023-05-11T23:44:00.784Z,12.36
2023-05-11T23:46:27.465Z,12.38
2023-05-11T23:48:54.121Z,12.55
2023-05-11T23:51:20.693Z,12.35
2023-05-11T23:53:47.373Z,12.31
2023-05-11T23:56:14.052Z,12.31
2023-05-11T23:58:40.683Z,12.26
